createdAt,value
2019-04-10T00:02:25.866Z,22.00
2019-04-10T00:04:55.784Z,16.50
2019-04-10T00:07:25.682Z,24.00
2019-04-10T00:09:55.166Z,19.50
2019-04-10T00:12:24.193Z,21.00
2019-04-10T00:14:53.222Z,24.00
2019-04-10T00:17:22.235Z,22.00
2019-04-10T00:19:51.921Z,24.50
2019-04-10T00:22:22.181Z,23.00
2019-04-10T00:24:51.281Z,19.00
2019-04-10T00:27:20.792Z,22.00
2019-04-10T00:29:49.903Z,20.00
2019-04-10T00:32:19.499Z,22.00
2019-04-10T00:34:49.659Z,22.50
2019-04-10T00:37:23.686Z,22.50
2019-04-10T00:39:49.529Z,26.00
2019-04-10T00:42:18.986Z,23.00
2019-04-10T00:44:48.135Z,20.00
2019-04-10T00:47:17.136Z,20.50
2019-04-10T00:52:21.832Z,21.00
2019-04-10T00:54:51.903Z,23.50
2019-04-10T00:57:21.338Z,20.50
2019-04-10T00:59:50.538Z,16.50
2019-04-10T01:02:20.543Z,20.00
2019-04-10T01:04:50.807Z,22.00
2019-04-10T01:07:31.653Z,19.50
2019-04-10T01:09:50.646Z,21.50
2019-04-10T01:12:19.670Z,20.00
2019-04-10T01:14:49.598Z,20.00
2019-04-10T01:17:18.800Z,22.50
2019-04-10T01:19:48.097Z,21.50
2019-04-10T01:22:17.041Z,18.50
2019-04-10T01:24:48.043Z,18.50
2019-04-10T01:27:18.063Z,16.00
2019-04-10T01:29:47.023Z,18.00
2019-04-10T01:32:16.027Z,21.50
2019-04-10T01:34:45.511Z,20.00
2019-04-10T01:37:14.518Z,22.00
2019-04-10T01:39:43.501Z,15.50
2019-04-10T01:42:12.529Z,14.00
2019-04-10T01:44:41.476Z,14.50
2019-04-10T01:47:10.877Z,12.50
2019-04-10T01:49:40.063Z,12.50
2019-04-10T01:52:09.076Z,17.00
2019-04-10T01:54:38.086Z,17.50
2019-04-10T01:57:08.160Z,17.50
2019-04-10T01:59:38.264Z,12.00
2019-04-10T02:02:25.336Z,9.00
2019-04-10T02:04:55.231Z,13.00
2019-04-10T02:07:24.689Z,14.00
2019-04-10T02:09:54.085Z,12.00
2019-04-10T02:12:23.077Z,13.00
2019-04-10T02:14:52.333Z,8.50
2019-04-10T02:17:22.246Z,15.50
2019-04-10T02:19:51.374Z,11.50
2019-04-10T02:22:20.448Z,6.50
2019-04-10T02:24:49.441Z,10.00
2019-04-10T02:27:18.477Z,10.00
2019-04-10T02:29:48.112Z,12.00
2019-04-10T02:32:18.781Z,12.00
2019-04-10T02:34:49.171Z,11.00
2019-04-10T02:37:19.202Z,12.00
2019-04-10T02:39:52.860Z,10.00
2019-04-10T02:42:20.876Z,10.50
2019-04-10T02:44:50.513Z,10.00
2019-04-10T02:47:23.095Z,8.00
2019-04-10T02:49:52.299Z,10.50
2019-04-10T02:52:22.552Z,12.00
2019-04-10T02:54:53.821Z,8.00
2019-04-10T02:57:23.371Z,8.00
2019-04-10T02:59:53.846Z,11.50
2019-04-10T03:02:24.284Z,8.50
2019-04-10T03:04:55.030Z,8.50
2019-04-10T03:07:25.837Z,7.50
2019-04-10T03:10:07.701Z,9.50
2019-04-10T03:12:28.238Z,8.00
2019-04-10T03:14:57.080Z,6.00
2019-04-10T03:17:28.220Z,7.50
2019-04-10T03:19:58.089Z,8.00
2019-04-10T03:22:28.948Z,8.00
2019-04-10T03:25:00.250Z,6.50
2019-04-10T03:27:30.297Z,6.00
2019-04-10T03:30:00.199Z,8.00
2019-04-10T03:33:06.699Z,9.00
2019-04-10T03:35:38.785Z,6.50
2019-04-10T03:38:07.941Z,8.00
2019-04-10T03:40:37.594Z,8.00
2019-04-10T03:43:07.607Z,6.50
2019-04-10T03:45:36.996Z,6.50
2019-04-10T03:48:06.460Z,7.50
2019-04-10T03:50:36.194Z,6.00
2019-04-10T03:53:05.557Z,6.00
2019-04-10T03:55:36.985Z,6.00
2019-04-10T03:58:07.081Z,7.50
2019-04-10T04:00:38.761Z,7.00
2019-04-10T04:03:10.638Z,6.00
2019-04-10T04:05:39.788Z,7.00
2019-04-10T04:08:08.886Z,4.00
2019-04-10T04:10:37.893Z,5.00
2019-04-10T04:13:09.098Z,6.50
2019-04-10T04:15:40.086Z,6.50
2019-04-10T04:18:11.109Z,7.00
2019-04-10T04:20:41.205Z,5.00
2019-04-10T04:23:11.573Z,6.50
2019-04-10T04:25:40.793Z,8.00
2019-04-10T04:28:09.776Z,6.00
2019-04-10T04:30:39.063Z,7.50
2019-04-10T04:33:08.795Z,8.00
2019-04-10T04:35:38.734Z,6.00
2019-04-10T04:38:07.937Z,6.00
2019-04-10T04:40:37.765Z,6.00
2019-04-10T04:43:08.342Z,7.00
2019-04-10T04:45:37.794Z,6.00
2019-04-10T04:48:07.765Z,4.00
2019-04-10T04:50:38.136Z,7.00
2019-04-10T04:53:07.344Z,6.00
2019-04-10T04:55:37.369Z,7.00
2019-04-10T04:58:06.602Z,6.50
2019-04-10T05:00:35.728Z,11.50
2019-04-10T05:03:04.873Z,9.00
2019-04-10T05:05:33.870Z,6.00
2019-04-10T05:08:05.137Z,10.00
2019-04-10T05:10:33.682Z,8.00
2019-04-10T05:13:02.747Z,11.00
2019-04-10T05:15:31.820Z,8.00
2019-04-10T05:18:01.903Z,6.00
2019-04-10T05:20:41.227Z,6.00
2019-04-10T05:23:02.002Z,5.00
2019-04-10T05:25:31.609Z,6.00
2019-04-10T05:28:01.562Z,6.00
2019-04-10T05:30:31.387Z,6.50
2019-04-10T05:33:02.750Z,5.00
2019-04-10T05:35:32.001Z,6.00
2019-04-10T05:38:02.561Z,6.00
2019-04-10T05:40:33.122Z,6.00
2019-04-10T05:43:04.063Z,6.00
2019-04-10T05:45:33.876Z,6.00
2019-04-10T05:48:04.426Z,6.50
2019-04-10T05:50:33.454Z,6.00
2019-04-10T05:53:02.477Z,6.00
2019-04-10T05:55:31.473Z,4.00
2019-04-10T05:58:01.529Z,6.00
2019-04-10T06:00:30.838Z,4.00
2019-04-10T06:03:00.462Z,6.00
2019-04-10T06:05:32.090Z,6.00
2019-04-10T06:08:01.400Z,4.00
2019-04-10T06:10:30.395Z,7.00
2019-04-10T06:13:00.468Z,3.50
2019-04-10T06:15:30.935Z,4.00
2019-04-10T06:18:00.021Z,6.00
2019-04-10T06:20:29.311Z,6.50
2019-04-10T06:22:59.168Z,5.50
2019-04-10T06:25:28.957Z,6.00
2019-04-10T06:27:59.347Z,4.50
2019-04-10T06:30:28.431Z,5.50
2019-04-10T06:33:00.042Z,6.00
2019-04-10T06:35:30.125Z,4.00
2019-04-10T06:37:59.345Z,5.50
2019-04-10T06:40:29.400Z,5.00
2019-04-10T06:42:59.448Z,5.50
2019-04-10T06:45:28.573Z,4.00
2019-04-10T06:47:58.441Z,6.00
2019-04-10T06:50:28.605Z,7.00
2019-04-10T06:52:58.856Z,4.50
2019-04-10T06:55:28.131Z,4.00
2019-04-10T06:57:58.183Z,6.00
2019-04-10T07:00:30.558Z,7.00
2019-04-10T07:03:00.901Z,4.00
2019-04-10T07:05:37.964Z,8.00
2019-04-10T07:08:11.799Z,7.50
2019-04-10T07:10:44.778Z,9.50
2019-04-10T07:13:06.285Z,5.00
2019-04-10T07:15:33.547Z,6.00
2019-04-10T07:18:03.087Z,4.00
2019-04-10T07:20:32.190Z,7.00
2019-04-10T07:23:01.350Z,5.00
2019-04-10T07:25:30.386Z,6.50
2019-04-10T07:28:01.206Z,6.00
2019-04-10T07:30:30.159Z,6.00
2019-04-10T07:32:59.353Z,8.00
2019-04-10T07:35:33.913Z,2.00
2019-04-10T07:38:02.159Z,8.00
2019-04-10T07:40:36.100Z,7.00
2019-04-10T07:43:04.213Z,7.00
2019-04-10T07:45:35.315Z,6.00
2019-04-10T07:48:04.511Z,6.00
2019-04-10T07:50:33.581Z,6.00
2019-04-10T07:53:02.576Z,7.00
2019-04-10T07:55:31.578Z,4.00
2019-04-10T07:58:00.717Z,6.00
2019-04-10T08:00:29.791Z,7.50
2019-04-10T08:02:59.482Z,4.00
2019-04-10T08:05:29.392Z,7.00
2019-04-10T08:07:59.062Z,6.25
2019-04-10T08:10:28.487Z,7.75
2019-04-10T08:12:58.182Z,8.25
2019-04-10T08:15:27.338Z,8.75
2019-04-10T08:17:56.482Z,5.75
2019-04-10T08:20:26.111Z,7.75
2019-04-10T08:22:57.426Z,7.75
2019-04-10T08:25:27.016Z,6.00
2019-04-10T08:27:56.451Z,9.50
2019-04-10T08:30:25.932Z,8.00
2019-04-10T08:33:00.796Z,5.75
2019-04-10T08:35:26.138Z,7.25
2019-04-10T08:37:55.339Z,8.00
2019-04-10T08:40:30.122Z,7.75
2019-04-10T08:43:01.960Z,8.50
2019-04-10T08:45:40.075Z,8.50
2019-04-10T08:48:01.981Z,7.00
2019-04-10T08:50:32.553Z,6.50
2019-04-10T08:53:02.125Z,5.50
2019-04-10T08:55:32.292Z,9.50
2019-04-10T08:58:01.422Z,9.25
2019-04-10T09:00:30.658Z,9.75
2019-04-10T09:03:00.299Z,6.75
2019-04-10T09:05:29.950Z,7.75
2019-04-10T09:08:00.247Z,5.75
2019-04-10T09:10:28.714Z,8.75
2019-04-10T09:12:57.951Z,9.25
2019-04-10T09:15:28.228Z,9.25
2019-04-10T09:17:57.694Z,8.25
2019-04-10T09:20:26.905Z,3.00
2019-04-10T09:23:13.429Z,7.00
2019-04-10T09:25:27.081Z,9.50
2019-04-10T09:27:56.155Z,6.50
2019-04-10T09:30:25.190Z,8.00
2019-04-10T09:32:54.868Z,5.00
2019-04-10T09:35:28.768Z,7.00
2019-04-10T09:37:58.693Z,7.00
2019-04-10T09:43:02.986Z,9.50
2019-04-10T09:45:35.089Z,9.50
2019-04-10T09:48:04.522Z,9.50
2019-04-10T09:50:33.542Z,9.00
2019-04-10T09:53:02.652Z,10.75
2019-04-10T09:55:31.993Z,10.00
2019-04-10T09:58:01.891Z,12.00
2019-04-10T10:00:31.917Z,13.25
2019-04-10T10:03:01.536Z,10.00
2019-04-10T10:05:30.854Z,11.00
2019-04-10T10:08:00.209Z,12.50
2019-04-10T10:13:05.505Z,12.00
2019-04-10T10:15:37.662Z,11.00
2019-04-10T10:18:06.728Z,10.00
2019-04-10T10:20:35.735Z,9.50
2019-04-10T10:23:05.420Z,8.50
2019-04-10T10:25:35.351Z,10.00
2019-04-10T10:28:04.954Z,10.00
2019-04-10T10:30:34.117Z,6.75
2019-04-10T10:33:03.653Z,10.00
2019-04-10T10:35:33.498Z,11.00
2019-04-10T10:38:08.573Z,10.50
2019-04-10T10:43:18.476Z,8.00
2019-04-10T10:45:53.460Z,11.75
2019-04-10T10:48:22.674Z,10.00
2019-04-10T10:50:51.670Z,11.75
2019-04-10T10:53:20.663Z,11.50
2019-04-10T10:55:49.780Z,8.50
2019-04-10T10:58:19.657Z,11.00
2019-04-10T11:00:50.104Z,10.00
2019-04-10T11:03:20.328Z,7.50
2019-04-10T11:05:50.795Z,9.50
2019-04-10T11:08:20.887Z,7.00
2019-04-10T11:13:26.534Z,8.00
2019-04-10T11:15:58.668Z,6.00
2019-04-10T11:18:28.651Z,11.00
2019-04-10T11:21:02.927Z,9.00
2019-04-10T11:23:28.646Z,10.50
2019-04-10T11:25:57.765Z,9.00
2019-04-10T11:28:30.278Z,12.50
2019-04-10T11:30:58.600Z,8.50
2019-04-10T11:33:27.944Z,9.00
2019-04-10T11:35:57.249Z,8.50
2019-04-10T11:38:27.306Z,5.00
2019-04-10T11:43:52.622Z,8.50
2019-04-10T11:46:22.700Z,6.00
2019-04-10T11:48:54.560Z,9.00
2019-04-10T11:51:24.148Z,8.50
2019-04-10T11:54:01.216Z,6.50
2019-04-10T11:56:31.028Z,6.00
2019-04-10T11:59:01.654Z,8.00
2019-04-10T12:01:31.180Z,6.50
2019-04-10T12:04:02.703Z,5.50
2019-04-10T12:06:33.917Z,6.00
2019-04-10T12:09:29.188Z,9.00
2019-04-10T12:11:35.174Z,8.50
2019-04-10T12:14:06.023Z,6.00
2019-04-10T12:16:36.848Z,8.00
2019-04-10T12:19:06.894Z,8.25
2019-04-10T12:21:36.072Z,9.50
2019-04-10T12:24:07.334Z,10.00
2019-04-10T12:26:36.450Z,10.50
2019-04-10T12:29:06.660Z,7.75
2019-04-10T12:31:36.417Z,10.50
2019-04-10T12:34:06.557Z,9.50
2019-04-10T12:36:38.569Z,8.50
2019-04-10T12:39:16.218Z,9.50
2019-04-10T12:41:45.842Z,9.00
2019-04-10T12:44:15.820Z,8.00
2019-04-10T12:46:45.681Z,8.25
2019-04-10T12:49:17.792Z,8.75
2019-04-10T12:51:46.849Z,7.00
2019-04-10T12:54:17.409Z,8.00
2019-04-10T12:56:46.683Z,8.25
2019-04-10T12:59:17.376Z,8.50
2019-04-10T13:01:47.044Z,7.75
2019-04-10T13:04:16.321Z,7.00
2019-04-10T13:06:46.414Z,8.00
2019-04-10T13:11:50.981Z,9.75
2019-04-10T13:14:19.997Z,7.50
2019-04-10T13:16:50.227Z,6.50
2019-04-10T13:19:19.441Z,7.00
2019-04-10T13:21:48.659Z,9.50
2019-04-10T13:24:17.722Z,10.50
2019-04-10T13:26:46.831Z,11.00
2019-04-10T13:29:18.325Z,8.25
2019-04-10T13:31:46.777Z,10.50
2019-04-10T13:34:15.792Z,9.50
2019-04-10T13:36:45.857Z,9.00
2019-04-10T13:39:17.763Z,8.00
2019-04-10T13:41:46.322Z,9.00
2019-04-10T13:44:16.320Z,9.00
2019-04-10T13:49:15.007Z,8.50
2019-04-10T13:51:44.025Z,7.75
2019-04-10T13:54:15.054Z,8.25
2019-04-10T13:56:43.844Z,8.75
2019-04-10T13:59:13.922Z,9.00
2019-04-10T14:01:43.941Z,6.50
2019-04-10T14:04:13.143Z,6.50
2019-04-10T14:06:42.223Z,6.00
2019-04-10T14:09:31.113Z,6.50
2019-04-10T14:11:49.365Z,7.75
2019-04-10T14:14:18.495Z,6.00
2019-04-10T14:16:48.813Z,6.00
2019-04-10T14:19:19.597Z,3.25
2019-04-10T14:21:49.195Z,6.00
2019-04-10T14:24:19.889Z,7.50
2019-04-10T14:27:08.109Z,5.00
2019-04-10T14:29:38.606Z,4.00
2019-04-10T14:32:11.311Z,5.00
2019-04-10T14:34:40.815Z,4.00
2019-04-10T14:37:12.175Z,4.00
2019-04-10T14:39:42.329Z,6.00
2019-04-10T14:42:11.455Z,5.50
2019-04-10T14:44:41.026Z,3.25
2019-04-10T14:47:10.648Z,5.50
2019-04-10T14:49:43.072Z,3.25
2019-04-10T14:52:12.687Z,6.00
2019-04-10T14:54:41.885Z,4.00
2019-04-10T14:57:10.997Z,7.00
2019-04-10T14:59:40.144Z,6.50
2019-04-10T15:02:11.045Z,3.00
2019-04-10T15:04:40.060Z,6.00
2019-04-10T15:07:10.153Z,5.50
2019-04-10T15:09:39.310Z,3.50
2019-04-10T15:12:10.757Z,4.00
2019-04-10T15:14:39.857Z,3.50
2019-04-10T15:17:11.010Z,4.25
2019-04-10T15:19:40.657Z,4.00
2019-04-10T15:22:09.742Z,6.00
2019-04-10T15:24:41.133Z,4.00
2019-04-10T15:27:11.172Z,3.75
2019-04-10T15:29:40.863Z,3.25
2019-04-10T15:32:10.601Z,5.50
2019-04-10T15:34:39.830Z,6.00
2019-04-10T15:37:08.923Z,4.50
2019-04-10T15:39:40.146Z,5.00
2019-04-10T15:42:09.861Z,6.00
2019-04-10T15:44:39.741Z,4.75
2019-04-10T15:47:17.536Z,3.75
2019-04-10T15:49:42.898Z,3.00
2019-04-10T15:52:12.182Z,5.00
2019-04-10T15:54:42.324Z,5.25
2019-04-10T15:57:11.557Z,5.75
2019-04-10T15:59:40.719Z,5.00
2019-04-10T16:02:09.792Z,5.50
2019-04-10T16:04:38.885Z,5.75
2019-04-10T16:07:08.113Z,6.00
2019-04-10T16:09:46.417Z,7.50
2019-04-10T16:12:12.077Z,3.00
2019-04-10T16:14:41.442Z,9.00
2019-04-10T16:17:22.892Z,5.00
2019-04-10T16:20:11.343Z,5.00
2019-04-10T16:22:44.663Z,6.25
2019-04-10T16:25:26.049Z,6.50
2019-04-10T16:27:55.605Z,6.75
2019-04-10T16:30:26.237Z,6.00
2019-04-10T16:32:55.577Z,5.00
2019-04-10T16:35:24.655Z,5.00
2019-04-10T16:37:55.853Z,5.00
2019-04-10T16:40:25.180Z,5.00
2019-04-10T16:42:55.216Z,3.50
2019-04-10T16:45:25.223Z,5.00
2019-04-10T16:47:54.565Z,4.50
2019-04-10T16:50:23.743Z,5.00
2019-04-10T16:52:53.574Z,1.50
2019-04-10T16:55:22.817Z,3.00
2019-04-10T16:57:51.805Z,5.00
2019-04-10T17:00:22.210Z,4.50
2019-04-10T17:02:51.290Z,3.00
2019-04-10T17:05:20.649Z,4.50
2019-04-10T17:07:49.735Z,4.50
2019-04-10T17:12:56.046Z,2.00
2019-04-10T17:15:26.045Z,3.50
2019-04-10T17:17:55.261Z,3.00
2019-04-10T17:20:25.048Z,3.00
2019-04-10T17:22:54.276Z,1.50
2019-04-10T17:25:24.363Z,4.00
2019-04-10T17:27:54.138Z,3.00
2019-04-10T17:30:23.438Z,3.00
2019-04-10T17:32:52.470Z,5.00
2019-04-10T17:35:21.567Z,3.00
2019-04-10T17:37:52.309Z,3.00
2019-04-10T17:40:31.191Z,6.00
2019-04-10T17:42:52.773Z,5.00
2019-04-10T17:45:22.998Z,4.50
2019-04-10T17:47:54.623Z,6.50
2019-04-10T17:50:24.502Z,6.50
2019-04-10T17:52:54.896Z,7.00
2019-04-10T17:55:25.251Z,6.00
2019-04-10T17:57:56.647Z,7.00
2019-04-10T18:00:35.503Z,5.50
2019-04-10T18:03:07.487Z,3.00
2019-04-10T18:05:37.105Z,3.00
2019-04-10T18:08:06.668Z,3.00
2019-04-10T18:10:44.679Z,3.00
2019-04-10T18:13:08.392Z,3.00
2019-04-10T18:15:37.920Z,4.00
2019-04-10T18:18:07.348Z,5.50
2019-04-10T18:20:36.402Z,4.00
2019-04-10T18:23:05.836Z,4.00
2019-04-10T18:25:36.057Z,9.00
2019-04-10T18:28:05.527Z,5.00
2019-04-10T18:30:36.019Z,2.00
2019-04-10T18:33:06.711Z,12.75
2019-04-10T18:35:35.800Z,5.75
2019-04-10T18:38:05.597Z,3.75
2019-04-10T18:40:35.107Z,4.75
2019-04-10T18:43:04.477Z,11.75
2019-04-10T18:45:33.720Z,3.75
2019-04-10T18:48:02.901Z,6.75
2019-04-10T18:50:32.218Z,6.00
2019-04-10T18:53:01.656Z,6.00
2019-04-10T18:55:30.701Z,4.00
2019-04-10T18:58:00.023Z,6.00
2019-04-10T19:00:51.174Z,4.00
2019-04-10T19:03:46.177Z,6.50
2019-04-10T19:06:12.752Z,6.00
2019-04-10T19:08:41.951Z,6.00
2019-04-10T19:11:21.177Z,6.00
2019-04-10T19:13:42.445Z,4.00
2019-04-10T19:16:13.153Z,6.00
2019-04-10T19:18:42.320Z,6.50
2019-04-10T19:21:11.463Z,4.50
2019-04-10T19:23:41.713Z,3.50
2019-04-10T19:26:13.919Z,5.00
2019-04-10T19:28:46.207Z,4.00
2019-04-10T19:31:19.423Z,7.00
2019-04-10T19:36:20.027Z,2.50
2019-04-10T19:38:49.630Z,4.00
2019-04-10T19:41:25.198Z,4.00
2019-04-10T19:43:50.517Z,5.00
2019-04-10T19:46:19.618Z,4.00
2019-04-10T19:48:50.777Z,6.00
2019-04-10T19:51:19.400Z,4.00
2019-04-10T19:53:49.150Z,6.00
2019-04-10T19:56:18.334Z,8.00
2019-04-10T19:58:47.354Z,6.50
2019-04-10T20:01:17.061Z,6.00
2019-04-10T20:03:46.237Z,4.00
2019-04-10T20:08:50.243Z,5.50
2019-04-10T20:11:31.340Z,8.50
2019-04-10T20:13:51.244Z,5.50
2019-04-10T20:16:22.782Z,6.00
2019-04-10T20:18:52.904Z,8.00
2019-04-10T20:21:21.957Z,5.50
2019-04-10T20:23:50.979Z,4.00
2019-04-10T20:26:21.179Z,4.00
2019-04-10T20:28:50.184Z,6.00
2019-04-10T20:31:28.988Z,4.00
2019-04-10T20:33:59.059Z,6.50
2019-04-10T20:36:35.301Z,5.00
2019-04-10T20:39:07.605Z,4.00
2019-04-10T20:41:46.502Z,2.50
2019-04-10T20:44:07.516Z,4.50
2019-04-10T20:46:38.203Z,6.00
2019-04-10T20:49:08.438Z,6.00
2019-04-10T20:51:37.776Z,4.50
2019-04-10T20:54:06.770Z,8.00
2019-04-10T20:56:36.833Z,19.50
2019-04-10T20:59:09.988Z,8.00
2019-04-10T21:01:41.276Z,8.00
2019-04-10T21:04:09.977Z,9.00
2019-04-10T21:06:42.016Z,9.50
2019-04-10T21:09:11.727Z,12.50
2019-04-10T21:11:41.944Z,10.00
2019-04-10T21:14:12.137Z,5.50
2019-04-10T21:16:42.177Z,9.50
2019-04-10T21:19:11.331Z,12.00
2019-04-10T21:21:41.378Z,8.00
2019-04-10T21:24:11.358Z,9.50
2019-04-10T21:26:40.844Z,9.00
2019-04-10T21:29:14.162Z,9.00
2019-04-10T21:31:59.008Z,8.50
2019-04-10T21:34:37.549Z,8.00
2019-04-10T21:37:06.679Z,8.00
2019-04-10T21:39:36.051Z,10.00
2019-04-10T21:42:15.804Z,10.00
2019-04-10T21:44:37.151Z,8.00
2019-04-10T21:47:06.283Z,9.50
2019-04-10T21:49:35.940Z,8.00
2019-04-10T21:52:05.726Z,11.50
2019-04-10T21:54:34.932Z,10.00
2019-04-10T21:57:05.301Z,8.00
2019-04-10T21:59:34.658Z,12.00
2019-04-10T22:02:04.851Z,8.50
2019-04-10T22:04:35.026Z,8.00
2019-04-10T22:07:20.392Z,8.00
2019-04-10T22:10:12.070Z,8.00
2019-04-10T22:12:46.676Z,6.00
2019-04-10T22:15:35.225Z,12.00
2019-04-10T22:18:05.175Z,10.00
2019-04-10T22:20:34.416Z,8.50
2019-04-10T22:23:04.036Z,8.00
2019-04-10T22:25:33.273Z,6.50
2019-04-10T22:28:02.239Z,7.50
2019-04-10T22:30:31.339Z,7.50
2019-04-10T22:33:00.587Z,8.00
2019-04-10T22:35:29.572Z,6.00
2019-04-10T22:37:58.572Z,10.00
2019-04-10T22:40:27.640Z,8.50
2019-04-10T22:42:57.523Z,8.00
2019-04-10T22:45:29.681Z,6.50
2019-04-10T22:48:00.710Z,8.00
2019-04-10T22:50:31.034Z,8.00
2019-04-10T22:53:01.385Z,8.00
2019-04-10T22:57:58.829Z,6.00
2019-04-10T23:00:30.931Z,6.50
2019-04-10T23:03:01.433Z,9.00
2019-04-10T23:05:32.341Z,8.00
2019-04-10T23:08:03.308Z,9.00
2019-04-10T23:10:35.218Z,8.50
2019-04-10T23:13:05.559Z,8.00
2019-04-10T23:15:35.630Z,8.00
2019-04-10T23:18:05.508Z,7.50
2019-04-10T23:20:34.776Z,9.00
2019-04-10T23:23:03.826Z,9.50
2019-04-10T23:25:32.885Z,9.00
2019-04-10T23:28:03.230Z,8.50
2019-04-10T23:30:33.026Z,7.50
2019-04-10T23:33:02.154Z,9.00
2019-04-10T23:35:31.640Z,9.00
2019-04-10T23:38:01.489Z,10.00
2019-04-10T23:40:30.524Z,8.00
2019-04-10T23:43:07.555Z,8.00
2019-04-10T23:45:31.375Z,10.00
2019-04-10T23:48:00.453Z,10.00
2019-04-10T23:50:30.322Z,10.00
2019-04-10T23:53:00.329Z,10.00
2019-04-10T23:55:30.187Z,8.00
2019-04-10T23:58:00.004Z,9.00
